createdAt,value
2022-09-21T00:01:29.832Z,68.74
2022-09-21T00:04:00.058Z,68.32
2022-09-21T00:06:29.249Z,67.58
2022-09-21T00:08:57.034Z,67.91
2022-09-21T00:11:27.495Z,70.34
2022-09-21T00:13:57.721Z,68.27
2022-09-21T00:16:25.391Z,67.59
2022-09-21T00:18:53.023Z,67.80
2022-09-21T00:24:07.615Z,69.46
2022-09-21T00:26:35.221Z,69.49
2022-09-21T00:29:03.993Z,70.29
2022-09-21T00:31:31.996Z,70.14
2022-09-21T00:34:00.270Z,70.29
2022-09-21T00:36:28.404Z,71.35
2022-09-21T00:38:58.130Z,71.63
2022-09-21T00:41:26.919Z,72.09
2022-09-21T00:44:32.917Z,69.34
2022-09-21T00:47:09.449Z,68.22
2022-09-21T00:49:38.401Z,68.71
2022-09-21T00:52:06.841Z,68.60
2022-09-21T00:54:43.612Z,67.83
2022-09-21T00:57:11.702Z,68.85
2022-09-21T00:59:39.767Z,68.90
2022-09-21T01:02:07.231Z,68.91
2022-09-21T01:04:36.189Z,69.12
2022-09-21T01:07:06.697Z,69.20
2022-09-21T01:09:34.528Z,69.83
2022-09-21T01:12:18.476Z,68.42
2022-09-21T01:14:50.620Z,68.43
2022-09-21T01:17:35.107Z,68.78
2022-09-21T01:20:08.627Z,68.14
2022-09-21T01:23:07.445Z,68.58
2022-09-21T01:25:34.645Z,67.82
2022-09-21T01:28:52.931Z,69.00
2022-09-21T01:31:27.020Z,70.47
2022-09-21T01:33:59.166Z,70.93
2022-09-21T01:36:29.434Z,70.01
2022-09-21T01:39:03.420Z,71.74
2022-09-21T01:41:32.436Z,70.75
2022-09-21T01:44:08.447Z,70.37
2022-09-21T01:46:37.334Z,70.54
2022-09-21T01:49:10.690Z,71.15
2022-09-21T01:51:43.897Z,69.86
2022-09-21T01:54:15.370Z,70.13
2022-09-21T01:56:51.956Z,70.03
2022-09-21T01:59:21.852Z,70.35
2022-09-21T02:01:53.767Z,69.56
2022-09-21T02:04:21.616Z,69.83
2022-09-21T02:06:49.941Z,68.37
2022-09-21T02:09:18.078Z,70.56
2022-09-21T02:11:45.971Z,70.47
2022-09-21T02:14:18.280Z,70.91
2022-09-21T02:16:45.846Z,69.16
2022-09-21T02:19:31.874Z,69.19
2022-09-21T02:22:07.814Z,69.05
2022-09-21T02:24:41.471Z,71.40
2022-09-21T02:27:26.128Z,72.11
2022-09-21T02:30:17.106Z,70.97
2022-09-21T02:33:14.017Z,68.96
2022-09-21T02:35:56.097Z,69.50
2022-09-21T02:38:42.832Z,70.73
2022-09-21T02:41:20.346Z,69.30
2022-09-21T02:43:53.142Z,69.22
2022-09-21T02:46:36.662Z,69.22
2022-09-21T02:49:11.159Z,68.45
2022-09-21T02:51:48.093Z,70.64
2022-09-21T02:54:18.679Z,70.43
2022-09-21T02:56:49.033Z,72.40
2022-09-21T02:59:16.782Z,70.38
2022-09-21T03:01:44.469Z,71.69
2022-09-21T03:04:11.917Z,70.09
2022-09-21T03:06:39.519Z,68.81
2022-09-21T03:09:07.082Z,67.80
2022-09-21T03:11:36.109Z,70.10
2022-09-21T03:14:08.448Z,70.96
2022-09-21T03:16:36.512Z,70.66
2022-09-21T03:19:05.625Z,70.45
2022-09-21T03:21:33.065Z,71.11
2022-09-21T03:24:00.436Z,72.12
2022-09-21T03:26:28.047Z,69.01
2022-09-21T03:28:55.565Z,68.82
2022-09-21T03:31:23.019Z,69.98
2022-09-21T03:33:50.649Z,70.17
2022-09-21T03:36:18.236Z,71.51
2022-09-21T03:38:45.653Z,70.70
2022-09-21T03:41:15.225Z,70.61
2022-09-21T03:43:42.579Z,70.34
2022-09-21T03:46:10.164Z,71.73
2022-09-21T03:48:37.901Z,72.04
2022-09-21T03:51:05.421Z,71.54
2022-09-21T03:53:32.823Z,71.16
2022-09-21T03:56:00.510Z,69.30
2022-09-21T03:58:27.864Z,66.79
2022-09-21T04:01:01.240Z,67.12
2022-09-21T04:03:29.825Z,66.13
2022-09-21T04:05:57.236Z,65.76
2022-09-21T04:08:24.557Z,68.51
2022-09-21T04:10:52.167Z,67.62
2022-09-21T04:13:19.503Z,67.82
2022-09-21T04:15:46.877Z,67.47
2022-09-21T04:18:15.028Z,66.84
2022-09-21T04:20:42.347Z,68.57
2022-09-21T04:23:09.992Z,67.85
2022-09-21T04:25:37.597Z,65.99
2022-09-21T04:28:04.957Z,66.52
2022-09-21T04:30:37.588Z,66.96
2022-09-21T04:33:06.063Z,68.09
2022-09-21T04:35:33.412Z,68.55
2022-09-21T04:38:00.753Z,68.67
2022-09-21T04:40:28.742Z,70.83
2022-09-21T04:42:56.222Z,71.13
2022-09-21T04:45:23.587Z,72.09
2022-09-21T04:47:51.182Z,71.43
2022-09-21T04:50:19.758Z,72.04
2022-09-21T04:52:47.727Z,71.65
2022-09-21T04:55:15.457Z,73.13
2022-09-21T04:57:42.881Z,71.71
2022-09-21T05:00:10.871Z,72.82
2022-09-21T05:02:38.453Z,73.82
2022-09-21T05:05:06.090Z,75.95
2022-09-21T05:07:33.431Z,74.96
2022-09-21T05:10:04.092Z,74.51
2022-09-21T05:12:33.065Z,71.81
2022-09-21T05:15:01.077Z,71.65
2022-09-21T05:17:28.667Z,70.29
2022-09-21T05:19:56.027Z,73.29
2022-09-21T05:22:23.810Z,70.81
2022-09-21T05:24:51.157Z,71.71
2022-09-21T05:27:18.497Z,73.36
2022-09-21T05:29:46.295Z,72.25
2022-09-21T05:32:27.347Z,71.23
2022-09-21T05:35:16.635Z,70.71
2022-09-21T05:38:04.596Z,71.01
2022-09-21T05:40:32.620Z,71.19
2022-09-21T05:43:00.322Z,71.86
2022-09-21T05:45:29.026Z,69.50
2022-09-21T05:48:06.037Z,69.22
2022-09-21T05:50:48.763Z,68.14
2022-09-21T05:53:53.507Z,65.83
2022-09-21T05:56:42.348Z,67.62
2022-09-21T05:59:12.881Z,66.20
2022-09-21T06:02:01.610Z,67.21
2022-09-21T06:04:29.608Z,66.52
2022-09-21T06:06:56.957Z,67.46
2022-09-21T06:09:25.857Z,69.16
2022-09-21T06:11:53.857Z,68.30
2022-09-21T06:14:25.524Z,67.56
2022-09-21T06:16:53.199Z,68.28
2022-09-21T06:19:20.657Z,70.25
2022-09-21T06:21:48.147Z,69.04
2022-09-21T06:24:15.751Z,69.00
2022-09-21T06:26:43.208Z,67.10
2022-09-21T06:29:10.568Z,66.98
2022-09-21T06:31:38.149Z,65.52
2022-09-21T06:34:05.606Z,67.38
2022-09-21T06:36:33.037Z,67.41
2022-09-21T06:39:00.662Z,64.51
2022-09-21T06:41:28.154Z,65.84
2022-09-21T06:43:57.125Z,64.67
2022-09-21T06:46:24.920Z,67.10
2022-09-21T06:48:52.279Z,66.58
2022-09-21T06:51:21.586Z,65.91
2022-09-21T06:53:55.664Z,66.76
2022-09-21T06:56:23.444Z,64.36
2022-09-21T06:58:52.492Z,65.10
2022-09-21T07:01:20.105Z,65.51
2022-09-21T07:03:51.781Z,65.62
2022-09-21T07:06:20.433Z,63.42
2022-09-21T07:11:41.876Z,62.39
2022-09-21T07:14:09.201Z,63.94
2022-09-21T07:16:37.490Z,63.19
2022-09-21T07:19:11.815Z,62.09
2022-09-21T07:21:39.850Z,62.91
2022-09-21T07:24:11.672Z,63.11
2022-09-21T07:26:40.000Z,63.27
2022-09-21T07:29:07.489Z,63.42
2022-09-21T07:31:35.282Z,60.50
2022-09-21T07:34:03.077Z,59.74
2022-09-21T07:36:30.876Z,59.30
2022-09-21T07:38:58.480Z,63.36
2022-09-21T07:41:26.153Z,62.13
2022-09-21T07:43:53.648Z,59.51
2022-09-21T07:46:21.106Z,61.11
2022-09-21T07:48:48.708Z,62.01
2022-09-21T07:51:16.766Z,62.43
2022-09-21T07:53:46.953Z,58.92
2022-09-21T07:56:17.830Z,61.76
2022-09-21T07:59:03.822Z,58.25
2022-09-21T08:01:32.607Z,58.56
2022-09-21T08:04:00.815Z,58.04
2022-09-21T08:06:30.496Z,60.02
2022-09-21T08:08:58.325Z,58.89
2022-09-21T08:11:27.754Z,58.26
2022-09-21T08:13:57.634Z,57.03
2022-09-21T08:16:27.626Z,58.15
2022-09-21T08:18:55.181Z,56.91
2022-09-21T08:21:22.934Z,57.67
2022-09-21T08:23:50.535Z,55.40
2022-09-21T08:26:19.812Z,54.17
2022-09-21T08:28:49.240Z,55.77
2022-09-21T08:31:19.755Z,57.30
2022-09-21T08:33:48.136Z,57.62
2022-09-21T08:36:15.720Z,54.95
2022-09-21T08:38:43.391Z,54.38
2022-09-21T08:41:20.200Z,56.94
2022-09-21T08:44:07.659Z,56.67
2022-09-21T08:46:36.998Z,55.47
2022-09-21T08:49:17.836Z,55.86
2022-09-21T08:52:16.906Z,55.32
2022-09-21T08:54:52.769Z,54.52
2022-09-21T08:57:20.509Z,55.66
2022-09-21T08:59:49.504Z,54.95
2022-09-21T09:02:54.614Z,54.46
2022-09-21T09:05:33.757Z,53.77
2022-09-21T09:08:04.319Z,55.49
2022-09-21T09:10:55.927Z,53.06
2022-09-21T09:13:32.400Z,51.74
2022-09-21T09:16:15.300Z,52.87
2022-09-21T09:18:46.469Z,54.36
2022-09-21T09:21:30.777Z,55.34
2022-09-21T09:24:06.220Z,53.26
2022-09-21T09:26:43.089Z,56.35
2022-09-21T09:29:29.569Z,53.77
2022-09-21T09:31:59.420Z,54.86
2022-09-21T09:34:32.542Z,55.76
2022-09-21T09:37:09.335Z,54.56
2022-09-21T09:39:37.098Z,54.90
2022-09-21T09:42:23.775Z,55.62
2022-09-21T09:45:25.493Z,56.19
2022-09-21T09:48:12.556Z,54.04
2022-09-21T09:50:40.751Z,54.20
2022-09-21T09:53:13.498Z,54.22
2022-09-21T09:55:43.880Z,54.58
2022-09-21T09:58:17.729Z,54.96
2022-09-21T10:00:46.372Z,54.24
2022-09-21T10:03:19.656Z,53.51
2022-09-21T10:05:47.611Z,52.59
2022-09-21T10:08:34.453Z,54.12
2022-09-21T10:11:02.943Z,51.90
2022-09-21T10:13:32.391Z,51.11
2022-09-21T10:16:19.762Z,51.27
2022-09-21T10:18:49.923Z,51.09
2022-09-21T10:21:52.088Z,48.73
2022-09-21T10:24:25.870Z,48.40
2022-09-21T10:27:11.750Z,48.80
2022-09-21T10:29:47.857Z,51.11
2022-09-21T10:32:16.395Z,51.97
2022-09-21T10:35:12.935Z,52.24
2022-09-21T10:37:46.399Z,51.83
2022-09-21T10:40:20.270Z,50.18
2022-09-21T10:42:59.079Z,52.87
2022-09-21T10:45:31.830Z,52.20
2022-09-21T10:48:05.333Z,51.17
2022-09-21T10:50:39.636Z,49.37
2022-09-21T10:53:09.892Z,50.58
2022-09-21T10:55:44.076Z,50.24
2022-09-21T10:58:20.370Z,51.64
2022-09-21T11:00:51.804Z,49.34
2022-09-21T11:03:57.753Z,51.10
2022-09-21T11:06:37.716Z,47.65
2022-09-21T11:09:23.765Z,46.93
2022-09-21T11:11:58.207Z,48.81
2022-09-21T11:14:38.650Z,49.73
2022-09-21T11:17:20.132Z,50.74
2022-09-21T11:19:52.704Z,48.52
2022-09-21T11:22:32.680Z,48.89
2022-09-21T11:25:18.673Z,47.08
2022-09-21T11:27:49.385Z,47.59
2022-09-21T11:30:18.583Z,46.21
2022-09-21T11:33:02.327Z,46.20
2022-09-21T11:35:50.660Z,46.95
2022-09-21T11:38:46.331Z,45.19
2022-09-21T11:41:19.578Z,42.63
2022-09-21T11:44:03.645Z,43.93
2022-09-21T11:46:46.792Z,45.34
2022-09-21T11:49:39.243Z,46.62
2022-09-21T11:52:39.081Z,44.25
2022-09-21T11:55:06.697Z,47.17
2022-09-21T11:57:45.544Z,46.17
2022-09-21T12:00:18.800Z,45.29
2022-09-21T12:03:16.092Z,43.51
2022-09-21T12:05:43.330Z,44.46
2022-09-21T12:08:37.141Z,45.20
2022-09-21T12:11:49.169Z,45.44
2022-09-21T12:14:28.607Z,44.62
2022-09-21T12:17:05.897Z,42.98
2022-09-21T12:20:02.290Z,46.05
2022-09-21T12:22:36.186Z,45.20
2022-09-21T12:25:24.078Z,46.55
2022-09-21T12:28:01.266Z,44.59
2022-09-21T12:30:31.366Z,44.17
2022-09-21T12:33:12.841Z,45.97
2022-09-21T12:35:46.758Z,44.98
2022-09-21T12:38:21.281Z,45.42
2022-09-21T12:41:11.398Z,44.14
2022-09-21T12:43:44.398Z,44.45
2022-09-21T12:46:24.420Z,42.98
2022-09-21T12:48:52.995Z,42.17
2022-09-21T12:51:37.137Z,41.50
2022-09-21T12:54:12.398Z,42.34
2022-09-21T12:56:52.201Z,43.38
2022-09-21T12:59:43.943Z,42.92
2022-09-21T13:02:17.820Z,43.90
2022-09-21T13:04:48.064Z,44.87
2022-09-21T13:07:43.880Z,44.42
2022-09-21T13:10:24.076Z,44.53
2022-09-21T13:12:56.269Z,42.62
2022-09-21T13:15:30.024Z,43.89
2022-09-21T13:18:26.330Z,43.75
2022-09-21T13:20:54.382Z,44.06
2022-09-21T13:23:30.387Z,44.47
2022-09-21T13:26:07.149Z,44.83
2022-09-21T13:28:56.888Z,43.65
2022-09-21T13:31:41.740Z,45.12
2022-09-21T13:34:15.501Z,44.15
2022-09-21T13:36:43.360Z,43.20
2022-09-21T13:39:17.194Z,43.18
2022-09-21T13:42:02.929Z,43.59
2022-09-21T13:44:34.347Z,43.62
2022-09-21T13:47:02.234Z,43.90
2022-09-21T13:49:39.825Z,43.45
2022-09-21T13:52:13.610Z,43.94
2022-09-21T13:54:52.957Z,44.34
2022-09-21T13:57:38.794Z,43.10
2022-09-21T14:00:09.939Z,42.59
2022-09-21T14:02:42.824Z,43.40
2022-09-21T14:05:39.344Z,42.59
2022-09-21T14:08:18.807Z,43.19
2022-09-21T14:10:55.887Z,43.16
2022-09-21T14:13:27.571Z,42.59
2022-09-21T14:15:55.494Z,42.69
2022-09-21T14:18:37.631Z,44.46
2022-09-21T14:21:11.206Z,44.04
2022-09-21T14:23:40.151Z,44.42
2022-09-21T14:26:39.958Z,43.85
2022-09-21T14:29:16.221Z,44.09
2022-09-21T14:31:44.123Z,43.42
2022-09-21T14:34:17.933Z,42.55
2022-09-21T14:36:47.606Z,43.86
2022-09-21T14:39:29.494Z,43.84
2022-09-21T14:41:59.322Z,44.14
2022-09-21T14:44:30.036Z,43.05
2022-09-21T14:47:06.776Z,44.97
2022-09-21T14:49:52.459Z,45.67
2022-09-21T14:52:38.875Z,45.30
2022-09-21T14:55:16.795Z,45.50
2022-09-21T14:58:16.568Z,45.42
2022-09-21T15:00:49.667Z,44.37
2022-09-21T15:03:35.778Z,45.01
2022-09-21T15:06:44.697Z,42.98
2022-09-21T15:10:04.217Z,42.58
2022-09-21T15:12:46.536Z,42.10
2022-09-21T15:15:40.682Z,43.11
2022-09-21T15:18:20.087Z,42.21
2022-09-21T15:21:04.105Z,42.26
2022-09-21T15:23:34.315Z,42.23
2022-09-21T15:26:05.169Z,43.47
2022-09-21T15:28:57.904Z,42.31
2022-09-21T15:31:24.578Z,42.81
2022-09-21T15:33:53.362Z,42.73
2022-09-21T15:36:23.256Z,41.19
2022-09-21T15:38:52.575Z,43.13
2022-09-21T15:41:44.968Z,43.60
2022-09-21T15:44:16.325Z,42.91
2022-09-21T15:46:48.170Z,43.90
2022-09-21T15:49:22.026Z,44.69
2022-09-21T15:51:54.609Z,46.19
2022-09-21T15:54:32.014Z,44.87
2022-09-21T15:57:05.953Z,46.17
2022-09-21T15:59:35.827Z,46.24
2022-09-21T16:02:11.756Z,45.71
2022-09-21T16:04:49.265Z,46.51
2022-09-21T16:07:42.993Z,44.70
2022-09-21T16:10:33.849Z,44.34
2022-09-21T16:13:23.940Z,45.28
2022-09-21T16:16:02.620Z,44.95
2022-09-21T16:18:43.122Z,45.98
2022-09-21T16:21:24.259Z,46.17
2022-09-21T16:23:52.730Z,46.73
2022-09-21T16:26:28.296Z,47.17
2022-09-21T16:29:16.628Z,47.73
2022-09-21T16:31:49.706Z,47.92
2022-09-21T16:34:33.276Z,48.11
2022-09-21T16:37:02.789Z,47.30
2022-09-21T16:39:30.147Z,47.60
2022-09-21T16:42:00.983Z,47.60
2022-09-21T16:44:40.129Z,47.44
2022-09-21T16:47:13.404Z,47.75
2022-09-21T16:49:41.441Z,48.37
2022-09-21T16:52:09.317Z,47.28
2022-09-21T16:54:37.492Z,48.48
2022-09-21T16:57:06.370Z,49.03
2022-09-21T16:59:35.751Z,48.80
2022-09-21T17:02:05.020Z,48.31
2022-09-21T17:04:34.369Z,48.08
2022-09-21T17:07:05.016Z,47.76
2022-09-21T17:09:41.458Z,47.76
2022-09-21T17:12:11.573Z,48.53
2022-09-21T17:14:45.621Z,48.24
2022-09-21T17:17:18.754Z,49.66
2022-09-21T17:19:48.477Z,48.70
2022-09-21T17:22:19.494Z,49.53
2022-09-21T17:24:51.693Z,50.29
2022-09-21T17:27:21.870Z,49.42
2022-09-21T17:29:50.247Z,49.13
2022-09-21T17:32:20.572Z,50.04
2022-09-21T17:34:58.836Z,51.47
2022-09-21T17:37:26.840Z,51.21
2022-09-21T17:39:54.254Z,51.19
2022-09-21T17:42:25.136Z,50.97
2022-09-21T17:45:38.751Z,50.96
2022-09-21T17:48:13.049Z,51.79
2022-09-21T17:50:40.796Z,51.10
2022-09-21T17:53:27.678Z,53.67
2022-09-21T17:55:58.545Z,51.18
2022-09-21T17:58:47.573Z,52.81
2022-09-21T18:01:36.087Z,50.57
2022-09-21T18:04:04.694Z,52.85
2022-09-21T18:06:34.091Z,52.27
2022-09-21T18:09:01.796Z,52.82
2022-09-21T18:11:45.905Z,51.31
2022-09-21T18:14:31.666Z,52.10
2022-09-21T18:17:01.894Z,52.38
2022-09-21T18:19:52.293Z,51.74
2022-09-21T18:23:00.457Z,53.19
2022-09-21T18:25:47.774Z,53.78
2022-09-21T18:28:24.148Z,51.93
2022-09-21T18:31:15.135Z,52.95
2022-09-21T18:33:48.533Z,53.07
2022-09-21T18:36:22.300Z,53.14
2022-09-21T18:39:16.825Z,53.39
2022-09-21T18:42:09.243Z,52.82
2022-09-21T18:44:42.109Z,52.60
2022-09-21T18:47:16.306Z,53.12
2022-09-21T18:50:02.513Z,53.88
2022-09-21T18:52:29.995Z,53.75
2022-09-21T18:54:57.869Z,54.91
2022-09-21T18:57:25.863Z,54.15
2022-09-21T18:59:54.034Z,53.99
2022-09-21T19:02:21.967Z,54.46
2022-09-21T19:04:49.769Z,54.90
2022-09-21T19:07:28.274Z,55.62
2022-09-21T19:10:13.707Z,55.99
2022-09-21T19:13:07.828Z,56.09
2022-09-21T19:16:02.040Z,56.74
2022-09-21T19:18:41.666Z,56.76
2022-09-21T19:21:17.311Z,57.73
2022-09-21T19:23:59.253Z,58.13
2022-09-21T19:26:45.116Z,58.42
2022-09-21T19:29:31.839Z,58.46
2022-09-21T19:31:59.645Z,58.02
2022-09-21T19:34:28.134Z,58.15
2022-09-21T19:36:57.357Z,58.79
2022-09-21T19:39:25.283Z,58.40
2022-09-21T19:42:08.913Z,58.61
2022-09-21T19:45:02.377Z,58.66
2022-09-21T19:47:40.902Z,59.02
2022-09-21T19:50:28.172Z,59.42
2022-09-21T19:53:15.882Z,60.83
2022-09-21T19:56:02.590Z,59.44
2022-09-21T19:58:48.715Z,58.99
2022-09-21T20:01:18.100Z,59.68
2022-09-21T20:03:47.207Z,60.29
2022-09-21T20:06:29.346Z,61.47
2022-09-21T20:09:13.086Z,61.72
2022-09-21T20:12:07.940Z,61.22
2022-09-21T20:14:38.852Z,60.51
2022-09-21T20:17:10.686Z,62.17
2022-09-21T20:19:53.073Z,62.25
2022-09-21T20:22:46.849Z,61.81
2022-09-21T20:25:21.588Z,62.01
2022-09-21T20:27:51.694Z,61.60
2022-09-21T20:30:33.838Z,62.12
2022-09-21T20:33:08.940Z,60.66
2022-09-21T20:35:36.659Z,60.24
2022-09-21T20:38:04.094Z,60.28
2022-09-21T20:40:32.370Z,60.57
2022-09-21T20:43:01.236Z,61.52
2022-09-21T20:45:29.629Z,61.55
2022-09-21T20:48:13.117Z,60.79
2022-09-21T20:50:44.536Z,61.57
2022-09-21T20:53:12.674Z,61.01
2022-09-21T20:55:41.155Z,61.75
2022-09-21T20:58:12.930Z,63.81
2022-09-21T21:00:40.468Z,61.85
2022-09-21T21:03:07.994Z,62.95
2022-09-21T21:05:35.614Z,62.36
2022-09-21T21:08:03.740Z,61.06
2022-09-21T21:10:31.818Z,64.38
2022-09-21T21:12:59.441Z,64.31
2022-09-21T21:15:27.310Z,62.61
2022-09-21T21:17:54.790Z,62.04
2022-09-21T21:20:22.687Z,62.30
2022-09-21T21:22:51.117Z,62.01
2022-09-21T21:25:18.569Z,61.65
2022-09-21T21:27:46.290Z,61.76
2022-09-21T21:30:13.745Z,62.15
2022-09-21T21:32:42.743Z,62.00
2022-09-21T21:35:10.351Z,61.81
2022-09-21T21:37:37.836Z,61.86
2022-09-21T21:40:05.748Z,63.77
2022-09-21T21:42:34.354Z,64.24
2022-09-21T21:45:01.684Z,62.60
2022-09-21T21:47:44.607Z,63.92
2022-09-21T21:50:12.283Z,62.66
2022-09-21T21:52:40.605Z,63.62
2022-09-21T21:55:08.383Z,62.53
2022-09-21T21:57:36.002Z,61.78
2022-09-21T22:00:04.858Z,62.40
2022-09-21T22:02:32.441Z,63.68
2022-09-21T22:05:00.137Z,63.17
2022-09-21T22:07:27.463Z,62.57
2022-09-21T22:09:55.589Z,61.47
2022-09-21T22:12:23.284Z,62.57
2022-09-21T22:14:50.592Z,62.03
2022-09-21T22:17:17.910Z,62.34
2022-09-21T22:19:45.571Z,62.83
2022-09-21T22:22:12.884Z,62.96
2022-09-21T22:24:40.231Z,63.68
2022-09-21T22:27:07.846Z,65.66
2022-09-21T22:29:35.844Z,63.18
2022-09-21T22:32:03.284Z,62.25
2022-09-21T22:34:30.970Z,62.17
2022-09-21T22:36:59.080Z,63.14
2022-09-21T22:39:26.706Z,63.14
2022-09-21T22:41:54.352Z,63.25
2022-09-21T22:44:21.678Z,64.82
2022-09-21T22:46:49.007Z,65.01
2022-09-21T22:49:16.714Z,63.56
2022-09-21T22:51:44.071Z,63.78
2022-09-21T22:54:11.398Z,64.85
2022-09-21T22:56:38.980Z,65.91
2022-09-21T22:59:06.360Z,64.96
2022-09-21T23:01:35.501Z,64.60
2022-09-21T23:04:11.612Z,64.94
2022-09-21T23:06:41.430Z,64.66
2022-09-21T23:09:15.733Z,66.13
2022-09-21T23:11:47.160Z,64.95
2022-09-21T23:14:16.407Z,66.00
2022-09-21T23:16:44.144Z,65.01
2022-09-21T23:19:15.711Z,65.98
2022-09-21T23:21:49.632Z,65.66
2022-09-21T23:24:17.938Z,65.03
2022-09-21T23:26:45.855Z,64.33
2022-09-21T23:29:15.116Z,64.66
2022-09-21T23:31:45.382Z,65.01
2022-09-21T23:34:14.674Z,66.14
2022-09-21T23:36:42.672Z,64.61
2022-09-21T23:39:11.738Z,65.74
2022-09-21T23:41:39.727Z,65.93
2022-09-21T23:44:07.070Z,66.06
2022-09-21T23:46:36.016Z,65.12
2022-09-21T23:49:04.179Z,65.28
2022-09-21T23:51:31.537Z,64.88
2022-09-21T23:53:59.558Z,65.84
2022-09-21T23:56:28.492Z,64.65
2022-09-21T23:58:56.244Z,65.97
